Date,TemperatureHighF,TemperatureAvgF,TemperatureLowF,DewpointHighF,DewpointAvgF,DewpointLowF,HumidityHigh,HumidityAvg,HumidityLow,PressureMaxIn,PressureMinIn,WindSpeedMaxMPH,WindSpeedAvgMPH,GustSpeedMaxMPH,PrecipitationSumIn
2012-1-1,52,45,39,48,42,38,100,89,69,30.11,29.67,5,2,13,0.17
2012-1-2,49,39,31,48,27,19,97,64,43,29.77,29.61,7,3,18,0.01
2012-1-3,31,23,12,23,12,-2,77,61,49,30.04,29.75,7,4,21,0.00
2012-1-4,26,18,9,10,4,-4,69,55,39,30.15,29.93,6,2,14,0.00
2012-1-5,37,30,23,23,18,10,66,61,52,29.95,29.78,6,1,16,0.00
2012-1-6,49,40,28,38,30,18,81,67,50,29.94,29.72,4,2,16,0.00
2012-1-7,59,50,42,37,34,31,68,55,39,29.91,29.67,4,2,10,0.00
2012-1-8,44,38,29,31,26,17,79,62,52,30.28,29.92,5,2,11,0.00
2012-1-9,40,31,25,27,18,12,81,62,32,30.29,29.97,4,1,9,0.00
2012-1-10,45,37,30,29,27,23,86,68,53,29.97,29.78,4,1,14,0.00
2012-1-11,45,37,31,36,29,24,86,72,51,30.09,29.96,3,1,8,0.00
2012-1-12,43,38,36,42,37,34,99,96,84,29.95,29.42,6,2,15,0.83
2012-1-13,50,37,27,50,30,14,100,79,53,29.70,29.27,8,4,25,0.02
2012-1-14,34,28,21,19,17,11,72,62,51,30.03,29.70,6,3,14,0.00
2012-1-15,20,13,8,11,0,-4,70,56,39,30.52,30.03,7,4,18,0.00
2012-1-16,35,21,8,32,12,0,97,69,36,30.57,30.16,5,2,16,0.00
2012-1-17,45,38,32,45,38,31,100,96,88,30.16,29.52,4,2,12,0.42
2012-1-18,48,35,19,47,22,7,99,60,42,30.14,29.52,8,5,22,0.01
2012-1-19,32,23,13,31,16,6,97,75,50,30.27,29.94,4,1,8,0.00
2012-1-20,32,26,20,31,16,6,97,67,44,30.28,29.92,7,2,22,0.00
2012-1-21,23,20,17,22,16,6,95,85,54,30.29,30.01,3,1,8,0.00
2012-1-22,31,22,11,23,16,8,91,80,66,30.53,30.29,2,0,5,0.00
2012-1-23,51,39,28,51,37,23,100,94,82,30.48,29.88,5,2,16,0.70
2012-1-24,53,47,39,50,42,33,100,84,64,30.08,29.87,4,2,12,0.01
2012-1-25,40,36,32,33,28,26,82,72,63,30.26,30.08,5,2,13,0.00
2012-1-26,38,34,32,38,30,27,99,86,73,30.21,29.91,2,1,5,0.17
2012-1-27,52,41,38,52,40,33,100,98,78,29.89,29.30,8,2,22,0.64
2012-1-28,45,40,34,35,31,26,89,71,52,30.02,29.70,9,3,23,0.00
2012-1-29,41,36,32,31,20,14,71,52,34,30.14,29.94,6,3,16,0.00
2012-1-30,37,34,29,30,19,14,77,54,40,30.29,29.96,7,3,18,0.00
2012-1-31,53,43,30,39,30,15,80,61,42,30.28,29.98,3,1,12,0.00
2012-2-1,60,51,43,47,40,35,91,67,53,30.01,29.81,6,3,14,0.08
2012-2-2,43,39,34,35,31,26,80,73,63,30.18,29.97,5,2,16,0.00
2012-2-3,39,32,26,26,19,11,73,58,33,30.40,30.18,5,3,16,0.00
2012-2-4,43,37,30,28,24,21,71,59,48,30.29,30.10,4,2,11,0.00
2012-2-5,35,29,24,22,16,11,73,59,39,30.15,30.06,3,1,8,0.00
2012-2-6,49,37,27,31,24,16,74,60,39,30.12,29.90,4,2,11,0.00
2012-2-7,45,39,32,30,27,21,68,60,49,30.22,29.91,6,3,18,0.00
2012-2-8,38,31,26,26,20,11,82,63,32,30.32,30.06,3,1,7,0.00
2012-2-9,45,35,28,25,20,16,82,55,33,30.11,29.99,5,2,13,0.00
2012-2-10,46,37,27,35,24,18,87,61,34,30.12,29.90,5,2,13,0.00
2012-2-11,38,34,30,32,28,18,96,79,54,29.91,29.50,6,2,16,0.03
2012-2-12,30,22,15,18,9,1,68,55,44,29.91,29.58,9,5,20,0.00
2012-2-13,41,32,20,20,16,7,70,51,35,30.00,29.84,6,3,17,0.00
2012-2-14,43,37,31,33,20,15,84,51,33,30.10,30.00,3,1,8,0.00
2012-2-15,47,41,36,40,36,31,98,84,68,30.26,30.08,3,1,9,0.02
2012-2-16,42,36,31,38,31,26,99,82,64,30.29,30.03,3,1,8,0.16
2012-2-17,48,42,36,43,35,22,99,76,49,30.03,29.86,5,2,11,0.05
2012-2-18,45,38,32,34,26,22,93,65,42,30.03,29.86,5,2,12,0.00
2012-2-19,44,36,31,32,25,19,94,66,37,30.07,29.93,5,2,9,0.00
2012-2-20,41,33,27,20,16,13,70,52,32,30.30,29.97,6,2,18,0.00
2012-2-21,42,35,24,40,24,13,96,67,41,30.34,29.86,6,2,16,0.00
2012-2-22,54,45,37,40,36,29,98,75,40,29.86,29.54,5,2,14,0.00
2012-2-23,56,46,37,45,37,25,97,74,50,29.78,29.37,7,2,16,0.00
2012-2-24,39,35,32,39,33,26,100,93,61,29.78,29.28,7,1,12,0.60
2012-2-25,40,37,31,37,24,17,99,61,47,29.90,29.31,9,5,24,0.00
2012-2-26,39,32,27,16,12,7,61,43,29,30.44,29.90,7,3,19,0.00
2012-2-27,50,39,26,38,26,7,81,60,41,30.44,30.03,7,2,23,0.00
2012-2-28,47,41,35,37,23,19,72,50,37,30.39,30.04,8,4,20,0.00
2012-2-29,40,34,31,34,28,20,98,79,53,30.38,29.83,4,1,12,0.14
2012-3-1,36,34,28,36,33,27,99,98,93,29.97,29.67,5,3,11,0.27
2012-3-2,36,31,26,34,28,23,96,90,85,30.13,29.88,4,2,10,0.05
2012-3-3,51,44,35,49,38,22,100,85,36,29.88,29.40,5,2,19,0.22
2012-3-4,44,38,32,28,23,20,74,54,43,29.69,29.52,4,1,16,0.00
2012-3-5,39,32,23,26,13,3,85,48,27,30.31,29.68,7,3,15,0.00
2012-3-6,40,29,19,27,13,7,80,54,27,30.59,30.32,6,2,17,0.00
2012-3-7,55,44,33,44,35,28,88,72,43,30.58,30.32,5,2,17,0.00
2012-3-8,62,54,46,51,48,43,93,81,67,30.33,29.81,8,5,23,0.00
2012-3-9,56,41,33,50,29,19,94,64,37,30.19,29.78,8,3,20,0.04
2012-3-10,40,33,27,23,18,11,72,53,41,30.52,30.19,6,3,18,0.00
2012-3-11,52,42,32,38,27,-100,84,60,35,30.51,30.29,5,2,14,0.00
2012-3-12,71,54,42,42,36,29,78,54,22,30.32,30.13,4,2,12,0.00
2012-3-13,65,54,47,57,49,41,98,87,71,30.13,29.90,5,2,12,0.09
2012-3-14,59,53,44,53,47,31,96,84,34,30.22,29.94,3,2,9,0.00
2012-3-15,52,43,40,41,39,37,93,86,66,30.34,30.22,4,2,10,0.00
2012-3-16,45,42,39,44,40,36,99,93,88,30.33,30.11,3,1,8,0.04
2012-3-17,56,48,40,46,43,39,99,86,68,30.37,30.16,3,1,7,0.00
2012-3-18,65,50,40,52,46,39,99,87,61,30.37,30.18,3,1,9,0.00
2012-3-19,74,59,46,59,52,44,97,80,55,30.24,30.13,4,1,10,0.00
2012-3-20,74,59,49,60,52,-100,99,80,61,30.33,30.24,4,1,12,0.00
2012-3-21,72,61,54,63,58,54,100,91,64,30.37,30.25,4,1,12,0.00
2012-3-22,76,63,55,61,57,-100,100,84,56,30.28,30.02,4,-5,11,0.00
2012-3-23,71,62,56,59,52,42,98,70,46,30.11,30.00,4,1,10,0.00
2012-3-24,59,54,46,44,31,22,65,43,25,30.11,30.01,5,2,12,0.00
2012-3-25,50,45,41,44,39,32,94,79,63,30.01,29.71,3,1,7,0.07
2012-3-26,52,43,33,45,27,7,98,59,26,30.03,29.66,9,4,23,0.00
2012-3-27,47,36,26,7,2,-3,38,25,13,30.19,30.03,8,4,22,0.00
2012-3-28,54,45,37,47,32,-5,97,65,15,30.15,29.55,5,2,15,0.27
2012-3-29,52,47,42,47,38,31,88,71,61,29.95,29.54,6,4,19,0.00
2012-3-30,52,43,35,34,22,11,70,46,20,30.04,29.93,5,3,17,0.00
2012-3-31,43,38,35,38,36,30,98,90,61,30.02,29.87,3,1,8,0.20
2012-4-1,50,42,32,42,37,31,99,85,57,29.90,29.62,4,1,13,0.17
2012-4-2,53,45,38,42,30,15,98,64,28,29.83,29.57,6,3,19,0.00
2012-4-3,58,46,36,18,15,12,46,29,17,29.88,29.72,7,3,18,0.00
2012-4-4,63,54,44,33,21,13,60,29,19,29.74,29.46,7,3,22,0.00
2012-4-5,53,44,37,32,28,25,75,54,37,29.91,29.68,6,3,15,0.00
2012-4-6,54,44,33,26,23,18,66,46,26,29.99,29.83,5,2,16,0.00
2012-4-7,57,46,37,27,21,16,49,37,26,30.02,29.87,6,3,15,0.00
2012-4-8,60,49,40,36,28,25,70,46,30,29.99,29.62,7,2,17,0.00
2012-4-9,59,52,46,37,28,22,66,40,28,29.66,29.54,8,4,22,0.00
2012-4-10,60,52,45,33,27,22,61,38,26,29.77,29.60,7,3,16,0.00
2012-4-11,55,47,40,40,34,29,84,62,38,29.87,29.72,5,2,13,0.01
2012-4-12,57,47,41,40,38,33,88,72,43,30.09,29.86,7,2,16,0.00
2012-4-13,62,50,38,38,32,23,90,56,24,30.17,30.04,6,3,12,0.00
2012-4-14,68,57,47,45,32,25,68,41,20,30.19,29.99,5,3,13,0.00
2012-4-15,76,64,53,58,51,-100,84,66,50,30.01,29.89,5,2,11,0.00
2012-4-16,87,70,58,60,57,53,93,66,32,30.01,29.91,5,2,14,0.00
2012-4-17,78,66,54,58,43,29,99,52,18,30.13,29.89,7,3,16,0.00
2012-4-18,64,54,47,39,34,29,61,46,33,30.22,30.11,7,3,16,0.00
2012-4-19,66,55,47,46,44,39,91,67,41,30.11,29.98,4,1,11,0.00
2012-4-20,71,56,44,53,48,44,99,76,44,30.04,29.89,5,2,13,0.00
2012-4-21,73,61,55,59,56,49,98,84,61,29.89,29.69,5,2,15,0.00
2012-4-22,59,51,44,58,48,-100,99,94,80,29.77,29.47,5,2,12,1.69
2012-4-23,58,50,44,58,48,41,100,93,77,29.47,29.22,5,2,12,1.18
2012-4-24,55,48,41,45,38,32,91,69,43,29.68,29.37,6,3,17,0.00
2012-4-25,60,50,41,45,35,28,95,62,30,29.91,29.68,5,1,16,0.00
2012-4-26,58,48,36,52,42,32,99,80,49,29.94,29.56,4,1,10,0.05
2012-4-27,56,48,38,53,35,24,100,63,36,30.06,29.53,7,4,21,0.01
2012-4-28,59,46,35,39,22,11,69,43,18,30.17,30.05,5,2,15,0.00
2012-4-29,60,49,36,35,16,-100,60,29,18,30.22,30.01,6,2,16,0.00
2012-4-30,62,49,37,39,23,15,71,38,22,30.34,30.21,3,2,13,0.00
2012-5-1,54,50,46,54,47,39,99,92,72,30.23,29.97,3,2,12,0.43
2012-5-2,56,49,44,50,46,43,97,89,77,30.19,30.11,2,1,5,0.00
2012-5-3,51,49,48,50,49,47,100,98,95,30.18,30.10,2,1,6,0.14
2012-5-4,69,56,49,63,54,49,100,96,80,30.11,29.87,2,1,8,0.11
2012-5-5,61,56,52,58,55,52,100,96,88,30.06,29.90,1,0,3,0.00
2012-5-6,64,55,48,53,49,-100,100,82,53,30.11,30.04,3,1,9,0.00
2012-5-7,48,45,43,47,45,43,99,98,95,30.12,30.09,0,0,2,0.00
2012-5-12,78,72,61,47,42,39,59,35,27,30.14,30.09,3,1,10,0.00
2012-5-13,80,65,53,58,50,-100,86,62,30,30.17,30.07,3,1,13,0.00
2012-5-14,71,64,59,64,59,56,98,85,73,30.16,30.08,2,1,10,0.04
2012-5-15,67,60,56,61,58,55,100,93,74,30.15,29.96,2,1,10,1.01
2012-5-16,71,63,59,68,62,59,100,98,86,29.95,29.83,2,0,7,0.04
2012-5-17,70,60,51,60,44,39,100,60,33,30.13,29.87,3,1,10,0.00
2012-5-18,71,57,44,51,43,38,94,63,34,30.24,30.13,2,1,8,0.00
2012-5-19,81,61,44,51,45,40,89,61,31,30.19,30.09,2,1,6,0.00
2012-5-20,78,63,50,53,44,-100,89,55,25,30.28,30.16,3,1,11,0.00
2012-5-21,67,60,53,66,57,41,100,90,62,30.25,30.03,1,0,5,0.29
2012-5-22,66,63,61,66,63,61,100,100,100,30.03,29.80,1,0,4,0.56
2012-5-23,76,66,59,68,63,59,100,92,72,30.05,29.85,2,0,7,0.00
2012-5-24,74,63,58,66,61,57,100,93,74,30.23,30.05,3,1,9,0.00
2012-5-25,72,63,57,68,63,57,100,98,87,30.23,30.12,2,0,6,0.00
2012-5-26,82,70,64,74,68,64,100,95,76,30.13,30.04,2,0,8,0.10
2012-5-27,83,70,62,66,63,58,100,79,45,30.15,30.01,2,0,6,0.01
2012-5-28,86,72,63,75,68,62,100,89,65,30.01,29.88,2,0,7,0.00
2012-5-29,88,72,62,76,68,62,100,88,64,29.91,29.70,4,1,15,0.00
2012-5-30,76,69,62,69,66,61,97,89,68,29.75,29.69,1,0,6,0.00
2012-5-31,80,69,61,63,56,49,100,69,38,29.91,29.70,2,1,9,0.00
2012-6-1,73,63,56,58,54,51,93,74,56,30.03,29.91,3,2,10,0.04
2012-6-2,67,61,55,67,60,54,100,99,96,29.92,29.66,4,1,10,2.44
2012-6-3,77,61,53,60,54,-100,100,83,45,29.72,29.60,4,0,10,0.08
2012-6-4,59,53,49,53,50,46,98,89,75,29.79,29.61,3,1,9,0.01
2012-6-5,61,54,48,54,50,46,97,86,72,29.94,29.78,2,0,6,0.01
2012-6-6,69,57,49,60,54,48,100,90,66,29.98,29.92,2,0,7,0.02
2012-6-7,76,60,51,60,55,49,100,85,42,29.98,29.88,2,0,8,0.10
2012-6-8,78,66,52,63,58,52,100,78,50,29.93,29.78,3,1,11,0.00
2012-6-9,74,66,60,63,60,55,91,79,64,29.96,29.80,2,0,5,0.00
2012-6-10,80,69,60,65,57,-100,97,72,47,30.20,29.96,2,0,8,0.00
2012-6-11,69,62,57,59,57,53,96,84,65,30.28,30.19,2,1,9,0.00
2012-6-12,71,63,56,65,61,55,100,94,77,30.22,29.95,3,1,10,0.13
2012-6-13,65,63,61,65,63,61,100,100,98,30.06,29.89,2,0,7,0.75
2012-6-14,74,63,56,64,60,55,100,91,68,30.24,30.06,1,0,5,0.00
2012-6-15,78,65,54,58,54,49,100,73,39,30.30,30.24,2,1,9,0.00
2012-6-16,77,63,53,63,56,51,94,79,49,30.33,30.24,3,1,8,0.00
2012-6-17,73,60,53,58,52,-100,97,79,55,30.26,30.10,2,1,7,0.00
2012-6-18,70,60,53,59,55,51,96,83,64,30.15,30.11,2,0,8,0.00
2012-6-19,70,62,54,65,60,53,99,91,81,30.17,30.07,2,1,8,0.00
2012-6-20,94,79,63,78,71,62,99,79,57,30.07,29.88,2,0,7,0.00
2012-6-21,95,84,76,76,72,69,83,68,43,29.90,29.74,2,1,7,0.00
2012-6-22,94,78,68,76,71,67,99,82,48,29.78,29.70,2,0,8,0.09
2012-6-23,85,72,64,69,64,58,100,80,48,29.95,29.77,2,1,10,0.15
2012-6-24,84,71,61,65,58,50,87,68,34,29.98,29.88,2,1,8,0.00
2012-6-25,74,64,60,67,63,58,100,94,73,29.88,29.65,2,1,9,1.05
2012-6-26,70,62,52,59,55,50,95,78,62,29.70,29.59,3,2,13,0.00
2012-6-27,79,69,60,56,52,47,77,57,39,29.77,29.63,3,1,12,0.00
2012-6-28,85,72,60,65,58,50,90,63,42,29.79,29.70,2,1,8,0.00
2012-6-29,92,77,65,78,70,62,98,81,57,29.71,29.56,2,1,7,0.00
2012-6-30,90,80,70,71,65,57,86,63,42,29.74,29.65,2,1,8,0.00
2012-7-1,90,76,67,74,69,65,99,81,53,29.83,29.72,2,0,9,0.15
2012-7-2,83,71,64,70,64,59,97,81,55,29.89,29.81,4,0,14,0.20
2012-7-3,83,73,63,68,63,58,88,72,49,29.94,29.83,2,1,7,0.00
2012-7-4,85,75,68,75,71,66,99,87,68,29.83,29.69,2,1,9,0.14
2012-7-5,86,77,69,72,70,64,99,80,54,29.85,29.66,2,0,5,0.00
2012-7-6,88,75,64,72,67,63,96,78,52,29.91,29.82,2,0,7,0.00
2012-7-7,89,77,70,77,70,66,98,81,58,29.85,29.73,2,1,7,0.01
2012-7-8,90,77,68,69,67,61,91,71,46,29.84,29.77,2,1,6,0.00
2012-7-9,84,73,64,65,60,57,90,66,43,29.95,29.84,2,0,8,0.00
2012-7-10,83,71,61,65,59,54,96,70,39,30.07,29.95,2,0,7,0.00
2012-7-11,84,73,63,71,65,60,99,80,46,30.18,30.07,2,1,7,0.00
2012-7-12,68,65,62,67,64,62,100,98,96,30.19,30.16,0,0,2,0.00
2012-7-13,85,78,70,71,69,67,91,76,59,30.19,30.13,2,1,8,0.00
2012-7-14,90,77,67,72,67,63,96,74,42,30.17,30.08,3,1,11,0.05
2012-7-15,85,75,68,75,70,65,99,87,68,30.11,29.88,2,0,6,0.43
2012-7-16,90,78,69,75,71,69,100,82,56,29.88,29.74,2,0,6,0.06
2012-7-17,90,80,70,73,70,67,91,73,51,29.80,29.70,3,1,13,0.00
2012-7-18,97,84,75,80,74,71,90,73,52,29.80,29.70,3,1,13,0.02
2012-7-19,73,68,64,66,63,60,94,84,75,29.98,29.91,2,0,4,0.00
2012-7-20,64,62,60,64,62,60,100,98,93,30.06,29.97,2,0,4,0.44
2012-7-21,81,66,58,64,60,58,100,83,49,30.12,30.03,2,0,7,0.01
2012-7-22,81,68,57,66,61,57,100,82,53,30.15,30.09,3,1,9,0.00
2012-7-23,81,71,64,74,69,63,99,93,79,30.12,29.78,3,1,10,0.25
2012-7-24,88,77,70,75,70,61,100,80,56,29.78,29.55,3,1,10,0.00
2012-7-25,83,72,62,62,57,55,79,62,41,29.84,29.70,3,1,9,0.00
2012-7-26,83,73,67,75,69,63,98,89,74,29.78,29.61,3,1,10,0.17
2012-7-27,87,75,69,76,72,68,99,92,65,29.88,29.64,3,0,6,0.27
2012-7-28,76,70,66,73,69,66,100,98,90,29.95,29.88,3,0,10,0.81
2012-7-29,75,68,64,69,67,64,100,96,78,30.06,29.89,1,0,4,0.03
2012-7-30,80,68,60,69,64,60,100,89,64,30.12,30.06,2,0,7,0.01
2012-7-31,72,67,61,68,65,61,100,94,85,30.11,29.90,1,0,3,0.00
2012-8-1,79,71,64,73,69,63,100,92,79,29.92,29.84,3,1,9,0.00
2012-8-2,86,76,69,75,72,69,100,88,63,29.91,29.82,2,0,7,0.01
2012-8-3,90,78,71,77,74,71,99,86,64,30.08,29.90,3,1,9,0.00
2012-8-4,88,78,72,78,74,71,100,89,68,30.20,30.08,2,1,8,0.00
2012-8-5,85,78,74,80,76,73,99,93,81,30.20,29.98,4,2,15,0.12
2012-8-6,76,71,66,65,63,61,84,76,69,29.97,29.93,0,0,0,0.00
2012-8-7,81,70,60,67,63,59,97,80,57,30.00,29.95,2,0,7,0.00
2012-8-8,84,73,63,74,68,63,100,88,60,29.99,29.93,3,0,9,0.00
2012-8-9,87,76,70,76,72,70,100,89,65,29.96,29.87,3,1,11,0.00
2012-8-10,81,75,72,76,74,71,100,96,82,29.91,29.68,6,1,15,0.94
2012-8-11,80,74,71,77,73,71,100,97,87,29.91,29.80,2,0,8,0.05
2012-8-12,83,75,70,75,71,-100,100,90,68,29.91,29.84,4,1,12,0.05
2012-8-13,84,72,64,70,66,61,94,80,56,29.96,29.89,2,0,5,0.00
2012-8-14,76,68,63,70,66,62,99,93,74,29.96,29.89,1,0,4,0.00
2012-8-15,76,70,64,72,68,64,100,96,77,29.92,29.82,2,0,6,0.29
2012-8-16,72,67,65,67,65,63,100,94,75,29.85,29.82,0,0,3,0.04
2012-8-17,84,73,62,72,67,60,98,81,62,29.86,29.77,3,1,10,0.17
2012-8-18,74,66,60,69,64,55,100,93,74,29.91,29.82,2,0,5,0.57
2012-8-19,73,64,56,63,58,54,93,81,63,29.96,29.90,2,0,4,0.00
2012-8-20,76,66,58,66,61,56,99,85,65,29.93,29.83,1,0,4,0.00
2012-8-21,80,70,63,65,62,59,97,79,48,30.09,29.91,2,0,5,0.00
2012-8-22,82,69,60,68,64,59,99,84,56,30.14,30.08,2,0,8,0.00
2012-8-23,84,71,62,70,66,62,100,85,56,30.15,30.08,2,0,7,0.00
2012-8-24,85,72,63,70,66,63,100,84,51,30.18,30.11,1,0,4,0.00
2012-8-25,82,70,63,70,64,59,100,82,47,30.29,30.18,2,0,7,0.00
2012-8-26,82,69,61,66,63,60,99,83,52,30.32,30.23,2,0,6,0.00
2012-8-27,82,68,58,71,64,58,100,90,65,30.23,30.01,3,1,9,0.00
2012-8-28,83,76,70,73,69,62,99,81,58,29.91,29.73,3,1,9,0.07
2012-8-29,73,66,59,62,54,46,95,69,38,29.99,29.86,3,1,8,0.00
2012-8-30,79,67,55,63,54,50,88,66,40,30.07,29.99,3,1,12,0.00
2012-8-31,77,67,61,64,58,55,85,74,63,30.02,29.99,2,0,4,0.00
2012-9-2,80,72,64,68,66,63,98,83,63,30.12,30.01,2,1,8,0.01
2012-9-3,78,66,57,64,61,57,100,86,58,30.19,30.11,3,1,8,0.01
2012-9-4,76,70,64,74,69,62,100,98,91,30.13,29.86,2,1,10,2.39
2012-9-5,77,74,68,75,72,67,100,96,84,29.87,29.75,3,1,12,0.56
2012-9-6,77,70,66,71,68,66,100,95,80,29.91,29.80,1,0,5,0.00
2012-9-7,84,73,66,74,70,66,100,93,70,29.93,29.85,2,0,7,0.00
2012-9-8,78,73,62,75,71,61,100,95,85,29.88,29.60,5,2,18,0.25
2012-9-9,74,64,60,62,59,56,99,85,54,29.85,29.72,2,0,5,0.04
2012-9-10,69,61,53,59,52,47,94,75,51,30.09,29.84,3,1,11,0.00
2012-9-11,68,57,47,55,48,44,89,74,44,30.27,30.09,2,1,8,0.00
2012-9-12,78,62,50,61,55,48,99,81,48,30.36,30.28,2,0,7,0.00
2012-9-13,79,66,58,65,61,58,100,86,57,30.37,30.27,2,0,8,0.00
2012-9-14,78,66,58,66,62,58,100,88,60,30.28,30.08,3,1,9,0.00
2012-9-15,70,63,56,63,55,49,100,79,56,30.08,29.98,4,2,15,0.01
2012-9-16,70,59,51,54,50,48,92,74,49,30.11,29.99,2,1,9,0.00
2012-9-17,75,60,47,60,54,46,97,82,54,30.11,30.01,2,0,6,0.00
2012-9-18,73,66,56,71,64,55,99,95,89,30.06,29.69,6,2,23,0.00
2012-9-19,68,61,53,67,54,47,100,78,52,30.17,29.70,4,2,16,0.00
2012-9-20,67,56,47,55,50,44,96,82,61,30.23,30.12,2,0,8,0.00
2012-9-21,72,57,49,58,52,48,99,86,54,30.15,30.02,2,0,5,0.00
2012-9-22,53,51,50,53,51,50,99,99,98,30.02,29.99,0,0,1,0.00
2012-9-26,67,65,63,65,64,62,99,98,91,30.05,30.03,1,0,6,0.00
2012-9-27,72,64,59,63,60,56,99,89,64,30.20,30.02,2,0,4,0.00
2012-9-28,60,57,54,60,56,54,100,99,95,30.20,29.94,3,1,8,0.00
2012-9-29,56,54,54,56,54,54,100,100,100,29.94,29.88,2,0,5,0.00
2012-9-30,64,57,50,59,54,49,100,92,74,29.84,29.73,2,0,5,0.00
2012-10-1,65,56,47,55,51,46,99,84,66,29.97,29.76,2,1,9,0.00
2012-10-2,66,59,55,63,57,53,100,95,83,30.06,29.96,1,0,3,0.00
2012-10-3,69,64,59,69,64,59,100,100,99,30.12,30.01,1,0,4,0.00
2012-10-4,68,65,63,68,65,63,100,100,98,30.14,30.03,0,0,3,0.00
2012-10-5,75,65,57,65,61,57,100,88,55,30.05,29.93,1,0,7,0.00
2012-10-6,75,63,50,65,60,46,100,90,67,29.96,29.73,4,1,13,0.00
2012-10-7,53,48,42,49,45,40,98,89,70,30.09,29.95,1,0,4,0.00
2012-10-8,54,47,40,47,44,40,100,91,71,30.29,30.09,1,0,6,0.00
2012-10-9,55,51,46,52,49,45,99,94,86,30.27,30.11,1,0,5,0.00
2012-10-10,51,50,50,50,49,47,99,94,89,30.12,30.02,1,0,2,0.00
2012-10-13,51,46,42,39,34,28,83,65,41,30.40,30.31,2,1,8,0.00
2012-10-14,66,58,44,59,52,39,92,82,69,30.31,29.98,4,2,17,0.00
2012-10-15,71,65,58,63,61,57,99,88,75,29.98,29.62,5,2,18,0.23
2012-10-16,58,51,42,58,44,38,99,78,54,29.89,29.61,5,2,19,0.03
2012-10-17,58,47,37,47,40,36,97,79,50,30.01,29.89,2,1,6,0.00
2012-10-18,64,52,44,56,49,43,100,90,63,30.08,30.01,2,0,8,0.00
2012-10-19,65,62,56,65,61,56,100,98,94,30.02,29.71,4,2,13,0.43
2012-10-20,73,64,52,65,58,43,100,81,53,29.79,29.63,3,1,14,0.00
2012-10-21,63,54,47,45,42,40,85,65,46,29.96,29.79,4,1,11,0.00
2012-10-22,64,56,49,46,43,40,76,62,48,30.04,29.94,4,1,12,0.00
2012-10-23,61,55,50,53,46,41,98,73,56,30.13,30.04,2,1,9,0.09
2012-10-24,55,52,50,52,49,46,99,88,73,30.22,30.11,1,0,4,0.00
2012-10-25,62,54,50,50,47,43,91,79,61,30.29,30.21,2,0,5,0.00
2012-10-26,67,58,52,57,53,49,94,83,71,30.26,30.13,2,0,6,0.00
2012-10-27,65,59,55,57,54,49,94,83,71,30.13,29.95,2,0,4,0.00
2012-10-28,58,55,50,53,49,43,95,80,68,29.96,29.68,6,3,12,0.00
2012-10-29,64,54,49,63,53,48,98,97,93,29.68,28.86,15,7,28,0.39
2012-10-30,57,56,55,55,54,54,98,95,91,29.51,29.48,2,1,5,0.00
2012-10-31,55,50,46,54,46,41,98,85,70,29.57,29.47,3,1,10,0.00
2012-11-1,53,47,41,43,40,36,90,77,65,29.59,29.52,4,1,11,0.00
2012-11-2,52,47,42,41,39,33,85,75,60,29.67,29.54,5,1,12,0.00
2012-11-3,50,44,40,35,33,31,77,67,53,29.86,29.67,6,4,16,0.00
2012-11-4,50,42,37,35,32,30,81,70,55,29.95,29.84,4,3,10,0.00
2012-11-5,42,37,30,31,26,20,79,65,54,30.16,29.94,4,2,13,0.00
2012-11-6,41,33,27,23,21,19,77,61,42,30.23,30.11,3,1,6,0.00
2012-11-7,38,32,30,33,28,22,100,87,69,30.12,29.68,7,5,19,0.01
2012-11-8,40,35,30,35,32,30,100,89,73,29.82,29.64,8,6,22,0.22
2012-11-9,50,42,36,36,28,21,80,60,34,30.16,29.82,7,4,16,0.00
2012-11-10,53,47,41,41,38,33,80,72,61,30.44,30.15,3,1,8,0.00
2012-11-11,62,53,45,50,46,41,94,80,61,30.51,30.41,4,2,11,0.00
2012-11-12,65,57,50,60,55,49,100,92,77,30.48,30.22,4,2,13,0.00
2012-11-13,62,49,37,61,46,30,98,91,77,30.42,30.14,5,3,18,0.10
2012-11-14,38,36,34,30,28,25,80,73,68,30.48,30.42,2,1,7,0.00
2012-11-15,37,33,31,30,27,25,89,78,70,30.46,30.30,3,1,6,0.00
2012-11-16,45,38,32,33,29,25,90,72,53,30.43,30.28,3,1,7,0.00
2012-11-17,49,40,33,34,30,27,81,68,53,30.64,30.43,3,2,7,0.00
2012-11-18,49,39,29,36,31,28,95,76,55,30.69,30.58,3,1,6,0.00
2012-11-19,48,38,31,39,33,29,93,83,71,30.61,30.25,3,1,6,0.00
2012-11-20,47,38,31,39,34,30,98,84,68,30.26,30.10,2,1,5,0.00
2012-11-21,52,43,36,38,35,30,90,74,53,30.24,30.13,4,1,9,0.00
2012-11-22,55,43,35,44,39,34,97,85,63,30.27,30.14,2,1,5,0.00
2012-11-23,53,44,36,47,42,36,100,94,74,30.14,29.67,3,1,10,0.00
2012-11-24,48,41,32,47,30,19,97,66,41,29.75,29.59,7,3,17,0.02
2012-11-25,38,34,31,26,22,20,71,62,50,29.91,29.75,6,3,13,0.00
2012-11-26,45,38,31,27,25,23,78,59,44,30.25,29.91,5,2,18,0.00
2012-11-27,35,33,30,33,30,24,99,89,74,30.31,30.21,0,0,2,0.06
2012-11-28,38,33,30,34,29,23,99,85,67,30.22,30.11,3,1,7,0.24
2012-11-29,42,35,28,29,26,24,84,70,51,30.31,30.19,4,2,11,0.05
2012-11-30,40,36,30,32,27,21,87,69,62,30.50,30.27,3,2,11,0.02
2012-12-1,35,32,31,34,29,23,97,85,71,30.57,30.45,3,2,7,0.00
2012-12-2,53,42,34,49,40,33,100,94,79,30.45,30.10,4,1,11,0.04
2012-12-3,55,50,41,48,45,39,98,86,66,30.29,30.08,5,2,16,0.00
2012-12-4,56,47,38,56,46,37,100,98,94,30.30,30.01,5,1,18,0.01
2012-12-5,55,47,34,55,40,22,99,76,56,30.17,29.89,8,4,23,0.00
2012-12-6,37,31,27,23,17,-100,73,59,50,30.33,30.17,6,3,14,0.00
2012-12-7,44,35,26,43,32,20,99,89,73,30.29,30.05,1,0,6,0.10
2012-12-8,47,45,43,47,45,43,100,100,99,30.04,29.85,3,0,7,0.03
2012-12-9,47,44,39,47,41,37,100,92,76,30.25,29.98,4,1,10,0.07
2012-12-10,57,51,41,57,51,41,100,100,99,30.09,29.54,4,1,11,0.41
2012-12-11,56,45,34,56,38,26,100,79,61,30.18,29.55,5,2,14,0.00
2012-12-12,39,34,30,27,26,24,80,71,58,30.44,30.18,4,1,9,0.00
2012-12-13,34,30,28,27,26,25,89,84,75,30.43,30.41,2,1,4,0.00
2012-12-14,41,39,38,30,27,25,71,62,54,30.19,30.17,3,2,6,0.00
2012-12-15,44,38,33,32,29,28,83,71,57,30.31,30.19,3,1,6,0.00
2012-12-16,38,35,34,35,32,30,98,90,82,30.27,29.99,4,3,9,0.02
2012-12-17,40,37,35,40,36,34,100,99,97,29.99,29.73,3,2,6,0.02
2012-12-18,46,43,40,46,42,39,100,99,88,29.71,29.44,5,2,13,0.09
2012-12-19,46,41,36,39,34,29,89,74,58,30.05,29.53,8,5,21,0.00
2012-12-20,44,37,32,36,31,28,95,77,62,30.21,29.96,4,2,9,0.08
2012-12-21,40,36,0,38,28,-78,98,84,1,29.96,29.20,6,4,12,0.02
2012-12-22,37,35,33,31,26,20,82,71,54,29.72,29.28,9,4,23,0.00
2012-12-23,40,36,33,27,24,21,76,62,55,29.91,29.72,6,2,15,0.00
2012-12-24,38,33,29,27,23,21,92,65,57,30.07,29.91,3,1,8,0.00
2012-12-25,33,30,27,32,29,23,98,95,88,30.23,29.93,4,2,7,0.02
2012-12-26,34,28,22,34,25,18,99,86,72,30.28,29.70,7,2,16,0.00
2012-12-27,39,34,30,39,33,24,99,95,84,29.72,29.28,9,6,19,0.03
2012-12-28,34,30,26,26,24,20,86,78,70,30.05,29.72,8,4,20,0.00
2012-12-29,32,28,25,30,26,23,99,93,86,30.04,29.43,3,1,7,0.00
2012-12-30,31,27,23,30,21,12,99,77,52,30.06,29.48,7,2,18,0.00
2012-12-31,35,29,22,26,20,12,74,67,61,30.11,29.83,5,3,11,0.00
2013-1-1,38,33,21,28,22,9,73,64,55,29.97,29.80,6,3,18,0.04